Bourem Airport


Codes: GABR/
Name: Bourem Airport
City: Bourem
Country: Mali
Elevation: 941 ft.

Photos at Bourem Airport


   Photos courtesy of SpottingLog. You can add your own sightings and photos by signing up for a free trial today.



No photos found.

Weather at Bourem Airport


Time (UTC)DescriptionTempratureWindCloud coverageVisibilityPressureHumidity
19-Apr-2024 03:00Clear Sky28°C11 mph, N1%10000m1009hPa8%
19-Apr-2024 06:00Clear Sky27°C11 mph, NE1%10000m1009hPa9%
19-Apr-2024 09:00Clear Sky32°C16 mph, NE3%10000m1010hPa6%
19-Apr-2024 12:00Scattered Clouds40°C11 mph, NE50%10000m1008hPa4%
19-Apr-2024 15:00Scattered Clouds41°C9 mph, N47%10000m1005hPa4%
19-Apr-2024 18:00Scattered Clouds37°C9 mph, NW25%10000m1005hPa5%
19-Apr-2024 21:00Clear Sky33°C11 mph, NW9%10000m1007hPa5%
20-Apr-2024 00:00Clear Sky31°C11 mph, N7%10000m1007hPa5%
20-Apr-2024 03:00Few Clouds29°C11 mph, N12%10000m1006hPa6%
20-Apr-2024 06:00Clear Sky28°C9 mph, NE6%10000m1007hPa7%
20-Apr-2024 09:00Clear Sky36°C11 mph, N0%10000m1007hPa4%
20-Apr-2024 12:00Clear Sky41°C9 mph, NW1%10000m1005hPa3%
20-Apr-2024 15:00Clear Sky42°C13 mph, NW0%10000m1002hPa3%
20-Apr-2024 18:00Clear Sky38°C9 mph, NW1%10000m1002hPa5%
20-Apr-2024 21:00Broken Clouds34°C9 mph, N67%10000m1004hPa6%
21-Apr-2024 00:00Scattered Clouds32°C11 mph, N36%10000m1003hPa6%
21-Apr-2024 03:00Clear Sky30°C9 mph, N1%10000m1002hPa6%
21-Apr-2024 06:00Clear Sky29°C7 mph, N6%10000m1003hPa6%
21-Apr-2024 09:00Clear Sky37°C4 mph, N1%10000m1004hPa4%
21-Apr-2024 12:00Clear Sky42°C4 mph, NW0%10000m1002hPa4%
21-Apr-2024 15:00Clear Sky44°C9 mph, W1%10000m1000hPa4%
21-Apr-2024 18:00Clear Sky39°C9 mph, W2%10000m1000hPa5%
21-Apr-2024 21:00Clear Sky34°C7 mph, W0%10000m1002hPa7%
22-Apr-2024 00:00Clear Sky33°C9 mph, NW2%10000m1003hPa7%
22-Apr-2024 03:00Scattered Clouds31°C9 mph, N44%10000m1002hPa8%
22-Apr-2024 06:00Scattered Clouds27°C4 mph, SE33%10000m1004hPa10%
22-Apr-2024 09:00Few Clouds36°C4 mph, N16%10000m1006hPa6%
22-Apr-2024 12:00Clear Sky40°C0 mph, SE10%10000m1005hPa5%
22-Apr-2024 15:00Clear Sky42°C2 mph, NW0%10000m1002hPa5%
22-Apr-2024 18:00Clear Sky39°C9 mph, NW0%10000m1002hPa6%
22-Apr-2024 21:00Clear Sky35°C9 mph, NW0%10000m1005hPa8%
23-Apr-2024 00:00Clear Sky33°C11 mph, N1%10000m1004hPa9%
23-Apr-2024 03:00Clear Sky30°C9 mph, N4%10000m1004hPa11%
23-Apr-2024 06:00Clear Sky29°C7 mph, N5%10000m1007hPa12%
23-Apr-2024 09:00Clear Sky36°C7 mph, N8%10000m1009hPa8%
23-Apr-2024 12:00Clear Sky41°C7 mph, NE5%10000m1006hPa6%
23-Apr-2024 15:00Clear Sky42°C2 mph, NE0%10000m1003hPa5%
23-Apr-2024 18:00Clear Sky39°C9 mph, NW1%10000m1004hPa7%
23-Apr-2024 21:00Clear Sky36°C11 mph, NW6%10000m1006hPa8%
24-Apr-2024 00:00Clear Sky33°C7 mph, N3%10000m1005hPa9%